sensor_id;sensor_type;location;lat;lon;timestamp;pressure;altitude;pressure_sealevel;temperature;humidity
19827;BME280;10074;52.018;4.726;2023-01-28T00:02:35;46457.88;;;-144.79;100.00
19827;BME280;10074;52.018;4.726;2023-01-28T00:07:36;46463.88;;;-144.79;100.00
19827;BME280;10074;52.018;4.726;2023-01-28T00:12:36;46461.88;;;-144.79;100.00
19827;BME280;10074;52.018;4.726;2023-01-28T00:17:37;46465.88;;;-144.79;100.00
19827;BME280;10074;52.018;4.726;2023-01-28T00:22:37;46461.88;;;-144.79;100.00
19827;BME280;10074;52.018;4.726;2023-01-28T00:27:38;46463.88;;;-144.79;100.00
19827;BME280;10074;52.018;4.726;2023-01-28T00:32:38;46463.88;;;-144.79;100.00
19827;BME280;10074;52.018;4.726;2023-01-28T00:37:39;46461.88;;;-144.79;100.00
19827;BME280;10074;52.018;4.726;2023-01-28T00:42:39;46463.88;;;-144.79;100.00
19827;BME280;10074;52.018;4.726;2023-01-28T00:47:40;46465.88;;;-144.79;100.00
19827;BME280;10074;52.018;4.726;2023-01-28T00:52:40;46465.88;;;-144.79;100.00
19827;BME280;10074;52.018;4.726;2023-01-28T00:57:41;46459.88;;;-144.79;100.00
19827;BME280;10074;52.018;4.726;2023-01-28T01:02:41;46467.88;;;-144.79;100.00
19827;BME280;10074;52.018;4.726;2023-01-28T01:07:42;46465.88;;;-144.79;100.00
19827;BME280;10074;52.018;4.726;2023-01-28T01:12:45;46461.88;;;-144.79;100.00
19827;BME280;10074;52.018;4.726;2023-01-28T01:17:47;46463.88;;;-144.79;100.00
19827;BME280;10074;52.018;4.726;2023-01-28T01:22:48;46459.88;;;-144.79;100.00
19827;BME280;10074;52.018;4.726;2023-01-28T01:27:49;46459.88;;;-144.79;100.00
19827;BME280;10074;52.018;4.726;2023-01-28T01:32:49;46455.84;;;-144.79;100.00
19827;BME280;10074;52.018;4.726;2023-01-28T01:37:50;46461.88;;;-144.79;100.00
19827;BME280;10074;52.018;4.726;2023-01-28T01:42:50;46455.84;;;-144.79;100.00
19827;BME280;10074;52.018;4.726;2023-01-28T01:48:01;46455.84;;;-144.79;100.00
19827;BME280;10074;52.018;4.726;2023-01-28T01:53:10;46459.88;;;-144.79;100.00
19827;BME280;10074;52.018;4.726;2023-01-28T01:58:15;46455.84;;;-144.79;100.00
19827;BME280;10074;52.018;4.726;2023-01-28T02:03:22;46453.84;;;-144.79;100.00
19827;BME280;10074;52.018;4.726;2023-01-28T02:08:26;46453.84;;;-144.79;100.00
19827;BME280;10074;52.018;4.726;2023-01-28T02:13:31;46457.88;;;-144.79;100.00
19827;BME280;10074;52.018;4.726;2023-01-28T02:18:33;46449.84;;;-144.79;100.00
19827;BME280;10074;52.018;4.726;2023-01-28T02:29:07;46455.84;;;-144.79;100.00
19827;BME280;10074;52.018;4.726;2023-01-28T02:39:30;46455.84;;;-144.79;100.00
19827;BME280;10074;52.018;4.726;2023-01-28T02:44:32;46457.88;;;-144.79;100.00
19827;BME280;10074;52.018;4.726;2023-01-28T02:49:40;46455.84;;;-144.79;100.00
19827;BME280;10074;52.018;4.726;2023-01-28T02:55:02;46455.84;;;-144.79;100.00
19827;BME280;10074;52.018;4.726;2023-01-28T03:00:13;46457.88;;;-144.79;100.00
19827;BME280;10074;52.018;4.726;2023-01-28T03:05:34;46455.84;;;-144.79;100.00
19827;BME280;10074;52.018;4.726;2023-01-28T03:10:35;46453.84;;;-144.79;100.00
19827;BME280;10074;52.018;4.726;2023-01-28T03:15:40;46459.88;;;-144.79;100.00
19827;BME280;10074;52.018;4.726;2023-01-28T03:21:34;46451.84;;;-144.79;100.00
19827;BME280;10074;52.018;4.726;2023-01-28T03:32:14;46451.84;;;-144.79;100.00
19827;BME280;10074;52.018;4.726;2023-01-28T03:37:34;46453.84;;;-144.79;100.00
19827;BME280;10074;52.018;4.726;2023-01-28T03:42:34;46451.84;;;-144.79;100.00
19827;BME280;10074;52.018;4.726;2023-01-28T03:47:35;46457.88;;;-144.79;100.00
19827;BME280;10074;52.018;4.726;2023-01-28T03:52:35;46457.88;;;-144.79;100.00
19827;BME280;10074;52.018;4.726;2023-01-28T03:57:36;46447.84;;;-144.79;100.00
19827;BME280;10074;52.018;4.726;2023-01-28T04:02:36;46449.84;;;-144.79;100.00
19827;BME280;10074;52.018;4.726;2023-01-28T04:07:39;46447.84;;;-144.79;100.00
19827;BME280;10074;52.018;4.726;2023-01-28T04:12:39;46449.84;;;-144.79;100.00
19827;BME280;10074;52.018;4.726;2023-01-28T04:17:46;46449.84;;;-144.79;100.00
19827;BME280;10074;52.018;4.726;2023-01-28T04:22:47;46451.84;;;-144.79;100.00
19827;BME280;10074;52.018;4.726;2023-01-28T04:27:47;46451.84;;;-144.79;100.00
19827;BME280;10074;52.018;4.726;2023-01-28T04:32:48;46455.84;;;-144.79;100.00
19827;BME280;10074;52.018;4.726;2023-01-28T04:37:51;46445.84;;;-144.79;100.00
19827;BME280;10074;52.018;4.726;2023-01-28T04:42:55;46447.84;;;-144.79;100.00
19827;BME280;10074;52.018;4.726;2023-01-28T04:47:56;46439.81;;;-144.79;100.00
19827;BME280;10074;52.018;4.726;2023-01-28T04:52:57;46443.81;;;-144.79;100.00
19827;BME280;10074;52.018;4.726;2023-01-28T04:57:57;46443.81;;;-144.79;100.00
19827;BME280;10074;52.018;4.726;2023-01-28T05:02:57;46451.84;;;-144.79;100.00
19827;BME280;10074;52.018;4.726;2023-01-28T05:07:58;46451.84;;;-144.79;100.00
19827;BME280;10074;52.018;4.726;2023-01-28T05:12:59;46443.81;;;-144.79;100.00
19827;BME280;10074;52.018;4.726;2023-01-28T05:17:59;46441.81;;;-144.79;100.00
19827;BME280;10074;52.018;4.726;2023-01-28T05:22:59;46447.84;;;-144.79;100.00
19827;BME280;10074;52.018;4.726;2023-01-28T05:28:00;46443.81;;;-144.79;100.00
19827;BME280;10074;52.018;4.726;2023-01-28T05:33:00;46441.81;;;-144.79;100.00
19827;BME280;10074;52.018;4.726;2023-01-28T05:38:01;46445.84;;;-144.79;100.00
19827;BME280;10074;52.018;4.726;2023-01-28T05:43:02;46441.81;;;-144.79;100.00
19827;BME280;10074;52.018;4.726;2023-01-28T05:48:03;46435.81;;;-144.79;100.00
19827;BME280;10074;52.018;4.726;2023-01-28T05:53:06;46439.81;;;-144.79;100.00
19827;BME280;10074;52.018;4.726;2023-01-28T05:58:07;46435.81;;;-144.79;100.00
19827;BME280;10074;52.018;4.726;2023-01-28T06:03:07;46435.81;;;-144.79;100.00
19827;BME280;10074;52.018;4.726;2023-01-28T06:08:08;46439.81;;;-144.79;100.00
19827;BME280;10074;52.018;4.726;2023-01-28T06:13:09;46439.81;;;-144.79;100.00
19827;BME280;10074;52.018;4.726;2023-01-28T06:18:09;46435.81;;;-144.79;100.00
19827;BME280;10074;52.018;4.726;2023-01-28T06:23:10;46431.78;;;-144.79;100.00
19827;BME280;10074;52.018;4.726;2023-01-28T06:28:10;46399.72;;;-144.79;100.00
19827;BME280;10074;52.018;4.726;2023-01-28T06:33:11;46335.53;;;-144.79;100.00
19827;BME280;10074;52.018;4.726;2023-01-28T06:38:12;46303.47;;;-144.79;100.00
19827;BME280;10074;52.018;4.726;2023-01-28T06:43:12;46287.44;;;-144.79;100.00
19827;BME280;10074;52.018;4.726;2023-01-28T06:48:13;46267.38;;;-144.79;100.00
19827;BME280;10074;52.018;4.726;2023-01-28T06:53:14;46259.34;;;-144.79;100.00
19827;BME280;10074;52.018;4.726;2023-01-28T06:58:14;46259.34;;;-144.79;100.00
19827;BME280;10074;52.018;4.726;2023-01-28T07:03:15;46251.34;;;-144.79;100.00
19827;BME280;10074;52.018;4.726;2023-01-28T07:08:17;46255.34;;;-144.79;100.00
19827;BME280;10074;52.018;4.726;2023-01-28T07:13:18;46243.31;;;-144.79;100.00
19827;BME280;10074;52.018;4.726;2023-01-28T07:18:18;46247.31;;;-144.79;100.00
19827;BME280;10074;52.018;4.726;2023-01-28T07:23:18;46257.34;;;-144.79;100.00
19827;BME280;10074;52.018;4.726;2023-01-28T07:28:19;46259.34;;;-144.79;100.00
19827;BME280;10074;52.018;4.726;2023-01-28T07:33:22;46261.34;;;-144.79;100.00
19827;BME280;10074;52.018;4.726;2023-01-28T07:38:23;46265.38;;;-144.79;100.00
19827;BME280;10074;52.018;4.726;2023-01-28T07:43:23;46267.38;;;-144.79;100.00
19827;BME280;10074;52.018;4.726;2023-01-28T07:48:23;46269.38;;;-144.79;100.00
19827;BME280;10074;52.018;4.726;2023-01-28T07:53:24;46279.41;;;-144.79;100.00
19827;BME280;10074;52.018;4.726;2023-01-28T07:58:25;46287.44;;;-144.79;100.00
19827;BME280;10074;52.018;4.726;2023-01-28T08:03:26;46295.44;;;-144.79;100.00
19827;BME280;10074;52.018;4.726;2023-01-28T08:08:28;46307.47;;;-144.79;100.00
19827;BME280;10074;52.018;4.726;2023-01-28T08:13:29;46315.50;;;-144.79;100.00
19827;BME280;10074;52.018;4.726;2023-01-28T08:18:29;46319.50;;;-144.79;100.00
19827;BME280;10074;52.018;4.726;2023-01-28T08:23:29;46327.53;;;-144.79;100.00
19827;BME280;10074;52.018;4.726;2023-01-28T08:28:30;46327.53;;;-144.79;100.00
19827;BME280;10074;52.018;4.726;2023-01-28T08:33:31;46325.53;;;-144.79;100.00
19827;BME280;10074;52.018;4.726;2023-01-28T08:38:31;46323.53;;;-144.79;100.00
19827;BME280;10074;52.018;4.726;2023-01-28T08:43:32;46325.53;;;-144.79;100.00
19827;BME280;10074;52.018;4.726;2023-01-28T08:48:32;46315.50;;;-144.79;100.00
19827;BME280;10074;52.018;4.726;2023-01-28T08:53:33;46307.47;;;-144.79;100.00
19827;BME280;10074;52.018;4.726;2023-01-28T08:58:33;46305.47;;;-144.79;100.00
19827;BME280;10074;52.018;4.726;2023-01-28T09:03:33;46299.47;;;-144.79;100.00
19827;BME280;10074;52.018;4.726;2023-01-28T09:08:35;46303.47;;;-144.79;100.00
19827;BME280;10074;52.018;4.726;2023-01-28T09:13:36;46291.44;;;-144.79;100.00
19827;BME280;10074;52.018;4.726;2023-01-28T09:18:37;46291.44;;;-144.79;100.00
19827;BME280;10074;52.018;4.726;2023-01-28T09:23:37;46287.44;;;-144.79;100.00
19827;BME280;10074;52.018;4.726;2023-01-28T09:28:38;46291.44;;;-144.79;100.00
19827;BME280;10074;52.018;4.726;2023-01-28T09:33:39;46297.44;;;-144.79;100.00
19827;BME280;10074;52.018;4.726;2023-01-28T09:38:40;46301.47;;;-144.79;100.00
19827;BME280;10074;52.018;4.726;2023-01-28T09:43:49;46301.47;;;-144.79;100.00
19827;BME280;10074;52.018;4.726;2023-01-28T09:48:54;46303.47;;;-144.79;100.00
19827;BME280;10074;52.018;4.726;2023-01-28T09:53:57;46303.47;;;-144.79;100.00
19827;BME280;10074;52.018;4.726;2023-01-28T09:59:20;46309.47;;;-144.79;100.00
19827;BME280;10074;52.018;4.726;2023-01-28T10:15:27;46307.47;;;-144.79;100.00
19827;BME280;10074;52.018;4.726;2023-01-28T10:20:33;46321.50;;;-144.79;100.00
19827;BME280;10074;52.018;4.726;2023-01-28T10:25:36;46323.53;;;-144.79;100.00
19827;BME280;10074;52.018;4.726;2023-01-28T10:30:38;46323.53;;;-144.79;100.00
19827;BME280;10074;52.018;4.726;2023-01-28T10:35:41;46319.50;;;-144.79;100.00
19827;BME280;10074;52.018;4.726;2023-01-28T10:40:43;46315.50;;;-144.79;100.00
19827;BME280;10074;52.018;4.726;2023-01-28T10:45:57;46313.50;;;-144.79;100.00
19827;BME280;10074;52.018;4.726;2023-01-28T10:51:02;46315.50;;;-144.79;100.00
19827;BME280;10074;52.018;4.726;2023-01-28T10:56:26;46315.50;;;-144.79;100.00
19827;BME280;10074;52.018;4.726;2023-01-28T11:01:43;46319.50;;;-144.79;100.00
19827;BME280;10074;52.018;4.726;2023-01-28T11:06:53;46321.50;;;-144.79;100.00
19827;BME280;10074;52.018;4.726;2023-01-28T11:11:53;46317.50;;;-144.79;100.00
19827;BME280;10074;52.018;4.726;2023-01-28T11:16:55;46323.53;;;-144.79;100.00
19827;BME280;10074;52.018;4.726;2023-01-28T11:21:57;46323.53;;;-144.79;100.00
19827;BME280;10074;52.018;4.726;2023-01-28T11:27:06;46323.53;;;-144.79;100.00
19827;BME280;10074;52.018;4.726;2023-01-28T11:32:18;46319.50;;;-144.79;100.00
19827;BME280;10074;52.018;4.726;2023-01-28T11:37:24;46319.50;;;-144.79;100.00
19827;BME280;10074;52.018;4.726;2023-01-28T11:42:24;46327.53;;;-144.79;100.00
19827;BME280;10074;52.018;4.726;2023-01-28T12:08:54;46339.56;;;-144.79;100.00
19827;BME280;10074;52.018;4.726;2023-01-28T12:14:06;46335.53;;;-144.79;100.00
19827;BME280;10074;52.018;4.726;2023-01-28T12:19:19;46335.53;;;-144.79;100.00
19827;BME280;10074;52.018;4.726;2023-01-28T12:24:48;46335.53;;;-144.79;100.00
19827;BME280;10074;52.018;4.726;2023-01-28T12:35:59;46337.56;;;-144.79;100.00
19827;BME280;10074;52.018;4.726;2023-01-28T12:41:14;46343.56;;;-144.79;100.00
19827;BME280;10074;52.018;4.726;2023-01-28T12:46:24;46347.56;;;-144.79;100.00
19827;BME280;10074;52.018;4.726;2023-01-28T12:51:31;46345.56;;;-144.79;100.00
19827;BME280;10074;52.018;4.726;2023-01-28T12:56:38;46343.56;;;-144.79;100.00
19827;BME280;10074;52.018;4.726;2023-01-28T13:01:50;46343.56;;;-144.79;100.00
19827;BME280;10074;52.018;4.726;2023-01-28T13:06:58;46339.56;;;-144.79;100.00
19827;BME280;10074;52.018;4.726;2023-01-28T13:12:00;46333.53;;;-144.79;100.00
19827;BME280;10074;52.018;4.726;2023-01-28T13:17:11;46333.53;;;-144.79;100.00
19827;BME280;10074;52.018;4.726;2023-01-28T13:22:32;46323.53;;;-144.79;100.00
19827;BME280;10074;52.018;4.726;2023-01-28T13:27:34;46327.53;;;-144.79;100.00
19827;BME280;10074;52.018;4.726;2023-01-28T13:32:34;46333.53;;;-144.79;100.00
19827;BME280;10074;52.018;4.726;2023-01-28T13:37:42;46321.50;;;-144.79;100.00
19827;BME280;10074;52.018;4.726;2023-01-28T13:42:43;46329.53;;;-144.79;100.00
19827;BME280;10074;52.018;4.726;2023-01-28T13:47:46;46331.53;;;-144.79;100.00
19827;BME280;10074;52.018;4.726;2023-01-28T13:53:03;46331.53;;;-144.79;100.00
19827;BME280;10074;52.018;4.726;2023-01-28T13:58:23;46333.53;;;-144.79;100.00
19827;BME280;10074;52.018;4.726;2023-01-28T14:19:36;46339.56;;;-144.79;100.00
19827;BME280;10074;52.018;4.726;2023-01-28T14:24:38;46347.56;;;-144.79;100.00
19827;BME280;10074;52.018;4.726;2023-01-28T14:35:19;46351.59;;;-144.79;100.00
19827;BME280;10074;52.018;4.726;2023-01-28T14:40:23;46359.59;;;-144.79;100.00
19827;BME280;10074;52.018;4.726;2023-01-28T14:56:12;46369.63;;;-144.79;100.00
19827;BME280;10074;52.018;4.726;2023-01-28T15:01:28;46365.63;;;-144.79;100.00
19827;BME280;10074;52.018;4.726;2023-01-28T15:06:33;46371.63;;;-144.79;100.00
19827;BME280;10074;52.018;4.726;2023-01-28T15:11:38;46369.63;;;-144.79;100.00
19827;BME280;10074;52.018;4.726;2023-01-28T15:16:40;46375.66;;;-144.79;100.00
19827;BME280;10074;52.018;4.726;2023-01-28T15:21:45;46379.66;;;-144.79;100.00
19827;BME280;10074;52.018;4.726;2023-01-28T15:26:46;46375.66;;;-144.79;100.00
19827;BME280;10074;52.018;4.726;2023-01-28T15:31:47;46383.66;;;-144.79;100.00
19827;BME280;10074;52.018;4.726;2023-01-28T15:36:48;46383.66;;;-144.79;100.00
19827;BME280;10074;52.018;4.726;2023-01-28T15:42:04;46387.69;;;-144.79;100.00
19827;BME280;10074;52.018;4.726;2023-01-28T15:47:31;46409.75;;;-144.79;100.00
19827;BME280;10074;52.018;4.726;2023-01-28T15:52:38;46403.72;;;-144.79;100.00
19827;BME280;10074;52.018;4.726;2023-01-28T15:57:40;46405.72;;;-144.79;100.00
19827;BME280;10074;52.018;4.726;2023-01-28T16:02:42;46401.72;;;-144.79;100.00
19827;BME280;10074;52.018;4.726;2023-01-28T16:07:44;46407.72;;;-144.79;100.00
19827;BME280;10074;52.018;4.726;2023-01-28T16:12:49;46403.72;;;-144.79;100.00
19827;BME280;10074;52.018;4.726;2023-01-28T16:17:52;46395.69;;;-144.79;100.00
19827;BME280;10074;52.018;4.726;2023-01-28T16:22:57;46407.72;;;-144.79;100.00
19827;BME280;10074;52.018;4.726;2023-01-28T16:28:01;46407.72;;;-144.79;100.00
19827;BME280;10074;52.018;4.726;2023-01-28T16:33:01;46417.75;;;-144.79;100.00
19827;BME280;10074;52.018;4.726;2023-01-28T16:38:02;46411.75;;;-144.79;100.00
19827;BME280;10074;52.018;4.726;2023-01-28T16:43:02;46395.69;;;-144.79;100.00
19827;BME280;10074;52.018;4.726;2023-01-28T16:48:06;46403.72;;;-144.79;100.00
19827;BME280;10074;52.018;4.726;2023-01-28T16:53:19;46405.72;;;-144.79;100.00
19827;BME280;10074;52.018;4.726;2023-01-28T16:58:23;46403.72;;;-144.79;100.00
19827;BME280;10074;52.018;4.726;2023-01-28T17:03:24;46409.75;;;-144.79;100.00
19827;BME280;10074;52.018;4.726;2023-01-28T17:08:25;46411.75;;;-144.79;100.00
19827;BME280;10074;52.018;4.726;2023-01-28T17:13:25;46413.75;;;-144.79;100.00
19827;BME280;10074;52.018;4.726;2023-01-28T17:18:26;46413.75;;;-144.79;100.00
19827;BME280;10074;52.018;4.726;2023-01-28T17:23:26;46407.72;;;-144.79;100.00
19827;BME280;10074;52.018;4.726;2023-01-28T17:28:26;46399.72;;;-144.79;100.00
19827;BME280;10074;52.018;4.726;2023-01-28T17:33:27;46401.72;;;-144.79;100.00
19827;BME280;10074;52.018;4.726;2023-01-28T17:38:27;46411.75;;;-144.79;100.00
19827;BME280;10074;52.018;4.726;2023-01-28T17:43:28;46407.72;;;-144.79;100.00
19827;BME280;10074;52.018;4.726;2023-01-28T17:48:28;46399.72;;;-144.79;100.00
19827;BME280;10074;52.018;4.726;2023-01-28T17:53:29;46407.72;;;-144.79;100.00
19827;BME280;10074;52.018;4.726;2023-01-28T17:58:30;46413.75;;;-144.79;100.00
19827;BME280;10074;52.018;4.726;2023-01-28T18:03:30;46413.75;;;-144.79;100.00
19827;BME280;10074;52.018;4.726;2023-01-28T18:08:33;46413.75;;;-144.79;100.00
19827;BME280;10074;52.018;4.726;2023-01-28T18:13:35;46413.75;;;-144.79;100.00
19827;BME280;10074;52.018;4.726;2023-01-28T18:18:36;46415.75;;;-144.79;100.00
19827;BME280;10074;52.018;4.726;2023-01-28T18:23:37;46415.75;;;-144.79;100.00
19827;BME280;10074;52.018;4.726;2023-01-28T18:28:37;46415.75;;;-144.79;100.00
19827;BME280;10074;52.018;4.726;2023-01-28T18:33:37;46415.75;;;-144.79;100.00
19827;BME280;10074;52.018;4.726;2023-01-28T18:38:38;46407.72;;;-144.79;100.00
19827;BME280;10074;52.018;4.726;2023-01-28T18:43:39;46415.75;;;-144.79;100.00
19827;BME280;10074;52.018;4.726;2023-01-28T18:48:39;46417.75;;;-144.79;100.00
19827;BME280;10074;52.018;4.726;2023-01-28T18:53:39;46399.72;;;-144.79;100.00
19827;BME280;10074;52.018;4.726;2023-01-28T18:58:41;46413.75;;;-144.79;100.00
19827;BME280;10074;52.018;4.726;2023-01-28T19:03:41;46375.66;;;-144.79;100.00
19827;BME280;10074;52.018;4.726;2023-01-28T19:08:41;46363.63;;;-144.79;100.00
19827;BME280;10074;52.018;4.726;2023-01-28T19:13:42;46373.66;;;-144.79;100.00
19827;BME280;10074;52.018;4.726;2023-01-28T19:18:43;46379.66;;;-144.79;100.00
19827;BME280;10074;52.018;4.726;2023-01-28T19:23:44;46361.63;;;-144.79;100.00
19827;BME280;10074;52.018;4.726;2023-01-28T19:28:44;46369.63;;;-144.79;100.00
19827;BME280;10074;52.018;4.726;2023-01-28T19:33:45;46339.56;;;-144.79;100.00
19827;BME280;10074;52.018;4.726;2023-01-28T19:38:45;46343.56;;;-144.79;100.00
19827;BME280;10074;52.018;4.726;2023-01-28T19:43:46;46323.53;;;-144.79;100.00
19827;BME280;10074;52.018;4.726;2023-01-28T19:48:46;46331.53;;;-144.79;100.00
19827;BME280;10074;52.018;4.726;2023-01-28T19:53:50;46335.53;;;-144.79;100.00
19827;BME280;10074;52.018;4.726;2023-01-28T19:58:52;46323.53;;;-144.79;100.00
19827;BME280;10074;52.018;4.726;2023-01-28T20:03:54;46315.50;;;-144.79;100.00
19827;BME280;10074;52.018;4.726;2023-01-28T20:09:05;46307.47;;;-144.79;100.00
19827;BME280;10074;52.018;4.726;2023-01-28T20:14:06;46295.44;;;-144.79;100.00
19827;BME280;10074;52.018;4.726;2023-01-28T20:19:13;46295.44;;;-144.79;100.00
19827;BME280;10074;52.018;4.726;2023-01-28T20:24:14;46299.47;;;-144.79;100.00
19827;BME280;10074;52.018;4.726;2023-01-28T20:29:16;46305.47;;;-144.79;100.00
19827;BME280;10074;52.018;4.726;2023-01-28T20:34:20;46315.50;;;-144.79;100.00
19827;BME280;10074;52.018;4.726;2023-01-28T20:39:21;46311.50;;;-144.79;100.00
19827;BME280;10074;52.018;4.726;2023-01-28T20:44:21;46325.53;;;-144.79;100.00
19827;BME280;10074;52.018;4.726;2023-01-28T20:49:22;46331.53;;;-144.79;100.00
19827;BME280;10074;52.018;4.726;2023-01-28T20:54:22;46355.59;;;-144.79;100.00
19827;BME280;10074;52.018;4.726;2023-01-28T20:59:24;46373.66;;;-144.79;100.00
19827;BME280;10074;52.018;4.726;2023-01-28T21:04:25;46389.69;;;-144.79;100.00
19827;BME280;10074;52.018;4.726;2023-01-28T21:09:25;46395.69;;;-144.79;100.00
19827;BME280;10074;52.018;4.726;2023-01-28T21:14:26;46407.72;;;-144.79;100.00
19827;BME280;10074;52.018;4.726;2023-01-28T21:19:27;46413.75;;;-144.79;100.00
19827;BME280;10074;52.018;4.726;2023-01-28T21:24:27;46403.72;;;-144.79;100.00
19827;BME280;10074;52.018;4.726;2023-01-28T21:29:28;46399.72;;;-144.79;100.00
19827;BME280;10074;52.018;4.726;2023-01-28T21:34:28;46417.75;;;-144.79;100.00
19827;BME280;10074;52.018;4.726;2023-01-28T21:39:29;46419.75;;;-144.79;100.00
19827;BME280;10074;52.018;4.726;2023-01-28T21:44:29;46419.75;;;-144.79;100.00
19827;BME280;10074;52.018;4.726;2023-01-28T21:49:30;46419.75;;;-144.79;100.00
19827;BME280;10074;52.018;4.726;2023-01-28T21:54:30;46423.78;;;-144.79;100.00
19827;BME280;10074;52.018;4.726;2023-01-28T21:59:31;46417.75;;;-144.79;100.00
19827;BME280;10074;52.018;4.726;2023-01-28T22:04:34;46419.75;;;-144.79;100.00
19827;BME280;10074;52.018;4.726;2023-01-28T22:09:35;46421.78;;;-144.79;100.00
19827;BME280;10074;52.018;4.726;2023-01-28T22:14:37;46423.78;;;-144.79;100.00
19827;BME280;10074;52.018;4.726;2023-01-28T22:19:37;46423.78;;;-144.79;100.00
19827;BME280;10074;52.018;4.726;2023-01-28T22:24:38;46425.78;;;-144.79;100.00
19827;BME280;10074;52.018;4.726;2023-01-28T22:29:38;46419.75;;;-144.79;100.00
19827;BME280;10074;52.018;4.726;2023-01-28T22:34:39;46423.78;;;-144.79;100.00
19827;BME280;10074;52.018;4.726;2023-01-28T22:39:39;46419.75;;;-144.79;100.00
19827;BME280;10074;52.018;4.726;2023-01-28T22:44:40;46423.78;;;-144.79;100.00
19827;BME280;10074;52.018;4.726;2023-01-28T22:49:40;46419.75;;;-144.79;100.00
19827;BME280;10074;52.018;4.726;2023-01-28T22:54:41;46423.78;;;-144.79;100.00
19827;BME280;10074;52.018;4.726;2023-01-28T22:59:41;46425.78;;;-144.79;100.00
19827;BME280;10074;52.018;4.726;2023-01-28T23:04:41;46429.78;;;-144.79;100.00
19827;BME280;10074;52.018;4.726;2023-01-28T23:09:44;46429.78;;;-144.79;100.00
19827;BME280;10074;52.018;4.726;2023-01-28T23:14:45;46423.78;;;-144.79;100.00
19827;BME280;10074;52.018;4.726;2023-01-28T23:20:05;46423.78;;;-144.79;100.00
19827;BME280;10074;52.018;4.726;2023-01-28T23:25:24;46421.78;;;-144.79;100.00
19827;BME280;10074;52.018;4.726;2023-01-28T23:30:24;46425.78;;;-144.79;100.00
19827;BME280;10074;52.018;4.726;2023-01-28T23:35:26;46419.75;;;-144.79;100.00
19827;BME280;10074;52.018;4.726;2023-01-28T23:40:26;46419.75;;;-144.79;100.00
19827;BME280;10074;52.018;4.726;2023-01-28T23:45:27;46425.78;;;-144.79;100.00
19827;BME280;10074;52.018;4.726;2023-01-28T23:50:27;46421.78;;;-144.79;100.00
19827;BME280;10074;52.018;4.726;2023-01-28T23:55:27;46419.75;;;-144.79;100.00
